• Join FlightAware (Why Join?)
  • Login
  • US Flag 
12:57PM EDT


 

Airport Tracker/Info


-or-


 

Live Flight TrackerFlight Track Log ✈ N469S ✈ 26-Apr-2013 ✈ KTDZ - KHAO

Flight Track Log - Related Links

Times and Time Zones

All times are in EDT time to prevent confusion due to time zone crossing. See the N469S flight status page for this flight to view local times or setup timezone preferences in your user account.

Time Position Orientation Groundspeed Altitude Reporting Facility
EDT Latitude Longitude Course Direction KTS MPH feet Rate Location/Type
01:07PM 41.2579 -83.6317 201° Southwest  Level Estimated
01:08PM 41.2068 -83.6564 200° South  Level Estimated
01:08PM 41.1367 -83.6725 199° South 198 228 6,000  Level Indianapolis Center
01:09PM 41.1553 -83.6801 199° South  Level FlightAware Approximate
01:09PM 41.0839 -83.6994 201° Southwest 200 230 6,000  Level Indianapolis Center
01:10PM 41.1038 -83.7037 199° South  Level FlightAware Approximate
01:10PM 41.0319 -83.7239 200° South 201 231 6,000  Level Indianapolis Center
01:11PM 41.0523 -83.7273 199° South  Level FlightAware Approximate
01:11PM 40.9803 -83.7494 200° South 198 228 6,100  Level Indianapolis Center
01:12PM 41.0009 -83.7509 199° South  Level FlightAware Approximate
01:12PM 40.9194 -83.7789 200° South 198 228 6,100  Level Indianapolis Center
01:13PM 40.9494 -83.7744 199° South  Level FlightAware Approximate
01:13PM 40.8669 -83.8053 201° Southwest 199 229 6,100  Level Indianapolis Center
01:14PM 40.8142 -83.8308 200° South 200 230 6,100 -60 Level Indianapolis Center
01:15PM 40.7631 -83.8575 202° Southwest 198 228 6,000  Descending Indianapolis Center
01:16PM 40.7119 -83.8825 200° South 197 227 6,100  Climbing Indianapolis Center
01:18PM 40.6589 -83.9064 199° South 198 228 6,100 -60 Level Indianapolis Center
01:19PM 40.6067 -83.9322 201° Southwest 198 228 6,000 -60 Descending Indianapolis Center
01:19PM 40.5642 -83.9550 202° Southwest 200 230 6,000 60 Level Indianapolis Center
01:20PM 40.5450 -83.9606 192° South 199 229 6,100 60 Climbing Indianapolis Center
01:21PM 40.4931 -83.9872 201° Southwest 199 229 6,100 -60 Level Indianapolis Center
01:22PM 40.4361 -84.0150 200° South 197 227 6,000  Descending Indianapolis Center
01:23PM 40.3883 -84.0361 199° South 198 228 6,100  Climbing Indianapolis Center
01:24PM 40.3356 -84.0622 201° Southwest 199 229 6,000 -60 Descending Indianapolis Center
01:25PM 40.2836 -84.0881 201° Southwest 198 228 6,000  Level Indianapolis Center
01:25PM 40.2403 -84.1069 198° South 200 230 6,000 60 Level Indianapolis Center
01:26PM 40.2306 -84.1114 199° South 199 229 6,100  Climbing Indianapolis Center
01:26PM 40.1903 -84.1331 202° Southwest 198 228 6,000 -120 Descending Indianapolis Center
01:27PM 40.1703 -84.1414 198° South 198 228 6,000  Level Indianapolis Center
01:28PM 40.1317 -84.1581 198° South 198 228 6,000 60 Level Indianapolis Center
01:28PM 40.1175 -84.1658 203° Southwest 199 229 6,100  Climbing Indianapolis Center
01:28PM 40.0836 -84.1817 200° South 199 229 6,000 -120 Descending Indianapolis Center
01:29PM 40.0656 -84.1900 199° South 198 228 6,000  Level Indianapolis Center
01:29PM 40.0333 -84.2078 203° Southwest 198 228 6,000 60 Level Indianapolis Center
01:30PM 40.0131 -84.2150 195° South 198 228 6,100 60 Climbing Indianapolis Center
01:30PM 39.9814 -84.2308 201° Southwest 198 228 6,100 -120 Level Indianapolis Center
01:31PM 39.9608 -84.2400 199° South 199 229 6,000 -120 Descending Indianapolis Center
01:31PM 39.9314 -84.2542 200° South 197 227 6,000  Level Indianapolis Center
01:32PM 39.9100 -84.2642 200° South 197 227 6,000  Level Indianapolis Center
01:33PM 39.8725 -84.2817 200° South 198 228 6,000  Level Indianapolis Center
01:33PM 39.8569 -84.2894 201° Southwest 197 227 6,000  Level Indianapolis Center
01:34PM 39.8178 -84.3097 202° Southwest 197 227 6,000  Level Indianapolis Center
01:34PM 39.7967 -84.3192 199° South 198 228 6,000 -420 Level Indianapolis Center
01:35PM 39.7419 -84.3456 200° South 202 232 5,400 -600 Descending Indianapolis Center
01:36PM 39.6908 -84.3839 210° Southwest 209 241 4,800 -600 Descending Indianapolis Center
01:37PM 39.6428 -84.4233 212° Southwest 207 238 4,200 -420 Descending Indianapolis Center
01:38PM 39.5994 -84.4636 216° Southwest 200 230 4,000 -420 Descending Indianapolis Center
01:39PM 39.5581 -84.5014 215° Southwest 189 217 3,400 -480 Descending Indianapolis Center
01:40PM 39.5064 -84.5236 198° South 188 216 3,100 -300 Descending Indianapolis Center